TAF EHFD
METAR EHFD
EHFD 082055Z AUTO 19029KT 9999 // SCT018/// BKN022/// OVC036/// 09/03 Q0994 RE//=
EHFD 082025Z AUTO 19028KT 9999 // FEW018/// BKN021/// BKN032/// 09/04 Q0994 RE//=
EHFD 081955Z AUTO 19030KT 9999 // SCT021/// SCT025/// BKN032/// 09/04 Q0993 RE//=
EHFD 081925Z AUTO 19031KT 9999 // FEW021/// SCT025/// BKN029/// 09/04 Q0993 RE//=
EHFD 081855Z AUTO 19034KT 9999 // FEW016/// SCT025/// BKN031/// 09/03 Q0992 RE//=
WC EHFD
WS EHFD
WV EHFD